createdAt,value
2019-02-26T00:02:52.924Z,117.60
2019-02-26T00:05:49.840Z,133.03
2019-02-26T00:08:47.222Z,134.25
2019-02-26T00:11:40.499Z,124.47
2019-02-26T00:14:36.134Z,166.70
2019-02-26T00:17:31.179Z,133.67
2019-02-26T00:20:26.027Z,148.38
2019-02-26T00:23:23.391Z,126.67
2019-02-26T00:26:18.487Z,154.30
2019-02-26T00:29:13.350Z,149.42
2019-02-26T00:32:09.947Z,145.45
2019-02-26T00:35:05.595Z,153.55
2019-02-26T00:38:01.381Z,162.45
2019-02-26T00:40:57.759Z,161.88
2019-02-26T00:44:11.383Z,158.52
2019-02-26T00:47:08.524Z,161.05
2019-02-26T00:50:02.493Z,167.75
2019-02-26T00:52:59.413Z,172.10
2019-02-26T00:55:58.456Z,189.00
2019-02-26T00:58:50.400Z,186.73
2019-02-26T01:01:46.369Z,213.20
2019-02-26T01:04:43.811Z,219.28
2019-02-26T01:07:38.238Z,199.02
2019-02-26T01:10:34.588Z,194.95
2019-02-26T01:13:32.303Z,186.92
2019-02-26T01:16:28.096Z,208.78
2019-02-26T01:19:27.432Z,222.80
2019-02-26T01:22:42.838Z,222.15
2019-02-26T01:25:39.045Z,195.85
2019-02-26T01:28:34.560Z,183.40
2019-02-26T01:31:32.108Z,200.00
2019-02-26T01:34:27.100Z,228.40
2019-02-26T01:37:22.515Z,210.15
2019-02-26T01:40:20.617Z,213.18
2019-02-26T01:43:13.165Z,214.50
2019-02-26T01:46:11.258Z,221.70
2019-02-26T01:49:05.098Z,222.25
2019-02-26T01:52:01.319Z,210.13
2019-02-26T01:54:58.392Z,206.68
2019-02-26T01:57:52.759Z,234.60
2019-02-26T02:00:48.389Z,248.07
2019-02-26T02:03:46.347Z,246.53
2019-02-26T02:06:44.719Z,259.90
2019-02-26T02:09:41.559Z,286.10
2019-02-26T02:12:37.336Z,287.65
2019-02-26T02:15:33.343Z,257.48
2019-02-26T02:18:29.964Z,308.90
2019-02-26T02:21:25.975Z,277.18
2019-02-26T02:24:22.856Z,286.40
2019-02-26T02:27:20.275Z,322.98
2019-02-26T02:30:22.456Z,329.38
2019-02-26T02:33:17.251Z,405.18
2019-02-26T02:36:09.714Z,371.62
2019-02-26T02:39:10.336Z,459.73
2019-02-26T02:42:05.371Z,480.70
2019-02-26T02:45:01.522Z,478.00
2019-02-26T02:48:00.353Z,494.13
2019-02-26T02:50:53.313Z,466.62
2019-02-26T02:53:51.106Z,468.77
2019-02-26T02:56:45.392Z,398.52
2019-02-26T02:59:42.302Z,397.75
2019-02-26T03:02:43.216Z,355.23
2019-02-26T03:05:41.294Z,311.98
2019-02-26T03:08:35.531Z,303.88
2019-02-26T03:11:35.900Z,298.10
2019-02-26T03:14:29.993Z,296.35
2019-02-26T03:17:24.341Z,335.02
2019-02-26T03:20:21.760Z,331.57
2019-02-26T03:23:20.035Z,346.90
2019-02-26T03:26:15.259Z,317.52
2019-02-26T03:29:09.861Z,301.40
2019-02-26T03:32:05.152Z,237.55
2019-02-26T03:35:04.305Z,207.83
2019-02-26T03:38:00.666Z,176.97
2019-02-26T03:40:57.473Z,153.27
2019-02-26T03:43:51.740Z,133.65
2019-02-26T03:46:46.800Z,135.85
2019-02-26T03:49:42.625Z,156.87
2019-02-26T03:52:38.254Z,135.07
2019-02-26T03:55:35.942Z,140.80
2019-02-26T03:58:32.934Z,141.80
2019-02-26T04:01:28.801Z,134.87
2019-02-26T04:04:26.140Z,130.27
2019-02-26T04:07:22.821Z,121.17
2019-02-26T04:10:16.674Z,136.72
2019-02-26T04:13:12.042Z,134.63
2019-02-26T04:16:07.575Z,118.57
2019-02-26T04:19:02.870Z,111.75
2019-02-26T04:22:34.859Z,97.95
2019-02-26T04:25:36.462Z,121.70
2019-02-26T04:28:50.880Z,111.00
2019-02-26T04:32:24.361Z,101.02
2019-02-26T04:36:04.951Z,77.10
2019-02-26T04:39:18.441Z,76.90
2019-02-26T04:43:07.233Z,73.60
2019-02-26T04:46:21.838Z,85.83
2019-02-26T04:49:38.460Z,92.62
2019-02-26T04:52:35.777Z,90.17
2019-02-26T04:55:35.028Z,91.75
2019-02-26T04:58:26.985Z,83.78
2019-02-26T05:01:22.716Z,84.52
2019-02-26T05:04:18.412Z,81.87
2019-02-26T05:07:17.289Z,72.55
2019-02-26T05:10:24.286Z,87.60
2019-02-26T05:13:22.003Z,83.10
2019-02-26T05:16:25.993Z,89.20
2019-02-26T05:19:26.167Z,94.55
2019-02-26T05:22:27.670Z,83.15
2019-02-26T05:25:24.638Z,92.25
2019-02-26T05:47:34.351Z,86.17
2019-02-26T05:50:49.406Z,98.00
2019-02-26T05:54:07.763Z,80.35
2019-02-26T06:00:59.289Z,79.53
2019-02-26T06:03:58.226Z,89.83
2019-02-26T06:07:02.691Z,83.20
2019-02-26T06:10:00.255Z,76.07
2019-02-26T06:12:55.993Z,61.63
2019-02-26T06:15:58.592Z,83.25
2019-02-26T06:19:18.102Z,76.15
2019-02-26T06:22:18.201Z,75.20
2019-02-26T06:25:30.545Z,68.35
2019-02-26T06:28:28.646Z,70.62
2019-02-26T06:31:27.664Z,68.80
2019-02-26T06:34:27.781Z,76.00
2019-02-26T06:37:35.383Z,59.10
2019-02-26T06:40:39.230Z,71.12
2019-02-26T06:43:50.245Z,89.95
2019-02-26T06:46:45.473Z,67.75
2019-02-26T06:49:43.243Z,64.60
2019-02-26T06:52:42.161Z,64.50
2019-02-26T06:55:39.901Z,83.50
2019-02-26T06:58:41.139Z,54.40
2019-02-26T07:01:37.929Z,63.60
2019-02-26T07:04:35.286Z,55.00
2019-02-26T07:07:34.398Z,59.98
2019-02-26T07:10:33.707Z,49.83
2019-02-26T07:13:33.873Z,54.27
2019-02-26T07:16:30.066Z,92.33
2019-02-26T07:19:33.232Z,47.93
2019-02-26T07:22:34.926Z,57.48
2019-02-26T07:25:55.516Z,54.03
2019-02-26T07:29:17.525Z,48.90
2019-02-26T07:32:19.678Z,64.65
2019-02-26T07:39:44.917Z,57.23
2019-02-26T07:42:51.490Z,57.85
2019-02-26T07:50:25.784Z,62.13
2019-02-26T07:54:15.087Z,54.45
2019-02-26T08:06:26.354Z,44.23
2019-02-26T08:09:35.601Z,62.48
2019-02-26T08:13:00.999Z,62.78
2019-02-26T08:16:21.333Z,51.53
2019-02-26T08:20:37.546Z,61.85
2019-02-26T08:24:14.820Z,56.77
2019-02-26T08:27:56.460Z,65.42
2019-02-26T08:31:46.829Z,72.97
2019-02-26T08:34:56.766Z,71.22
2019-02-26T08:38:21.790Z,66.95
2019-02-26T08:41:35.443Z,72.37
2019-02-26T08:45:17.781Z,63.20
2019-02-26T08:49:13.250Z,68.20
2019-02-26T08:52:50.836Z,61.35
2019-02-26T08:56:40.990Z,58.75
2019-02-26T09:03:55.837Z,56.88
2019-02-26T09:07:21.841Z,67.17
2019-02-26T09:10:25.046Z,69.90
2019-02-26T09:13:20.848Z,71.92
2019-02-26T09:16:32.758Z,122.70
2019-02-26T09:19:22.685Z,92.78
2019-02-26T09:22:20.725Z,74.80
2019-02-26T09:25:26.198Z,82.95
2019-02-26T09:28:22.302Z,93.40
2019-02-26T09:31:16.696Z,86.55
2019-02-26T09:34:12.901Z,66.22
2019-02-26T09:37:10.647Z,74.00
2019-02-26T09:40:07.153Z,73.83
2019-02-26T09:43:08.856Z,81.57
2019-02-26T09:46:19.862Z,62.73
2019-02-26T09:49:18.169Z,72.25
2019-02-26T09:52:18.390Z,58.63
2019-02-26T09:55:43.360Z,104.80
2019-02-26T09:58:45.601Z,62.43
2019-02-26T10:01:42.854Z,61.92
2019-02-26T10:04:36.917Z,57.70
2019-02-26T10:07:35.501Z,65.08
2019-02-26T10:11:35.728Z,56.75
2019-02-26T10:14:43.607Z,70.15
2019-02-26T10:17:42.673Z,77.60
2019-02-26T10:20:39.287Z,68.87
2019-02-26T10:23:47.152Z,81.67
2019-02-26T10:26:41.478Z,100.12
2019-02-26T10:29:39.832Z,73.95
2019-02-26T10:32:33.996Z,89.22
2019-02-26T10:35:44.355Z,82.25
2019-02-26T10:38:38.463Z,61.68
2019-02-26T10:41:36.762Z,67.20
2019-02-26T10:44:32.312Z,71.87
2019-02-26T10:47:29.745Z,80.95
2019-02-26T10:50:30.950Z,60.85
2019-02-26T10:53:24.652Z,68.50
2019-02-26T10:56:21.424Z,90.17
2019-02-26T10:59:19.517Z,57.70
2019-02-26T11:02:17.295Z,73.67
2019-02-26T11:05:27.559Z,65.95
2019-02-26T11:08:26.833Z,54.10
2019-02-26T11:11:20.267Z,57.27
2019-02-26T11:14:19.325Z,56.33
2019-02-26T11:17:15.855Z,45.73
2019-02-26T11:20:11.767Z,59.75
2019-02-26T11:23:14.244Z,61.63
2019-02-26T11:26:10.691Z,47.95
2019-02-26T11:29:05.173Z,62.38
2019-02-26T11:32:01.735Z,51.92
2019-02-26T11:35:03.432Z,56.02
2019-02-26T11:37:59.332Z,56.50
2019-02-26T11:40:55.850Z,59.80
2019-02-26T11:43:51.841Z,52.67
2019-02-26T11:47:34.104Z,66.22
2019-02-26T11:50:27.936Z,60.40
2019-02-26T11:54:12.968Z,57.67
2019-02-26T11:57:12.917Z,64.37
2019-02-26T12:00:25.469Z,53.48
2019-02-26T12:03:36.366Z,63.75
2019-02-26T12:10:40.425Z,50.98
2019-02-26T12:17:27.803Z,53.87
2019-02-26T12:20:31.752Z,53.85
2019-02-26T12:23:34.298Z,74.60
2019-02-26T12:30:09.989Z,51.25
2019-02-26T12:33:12.360Z,65.22
2019-02-26T12:36:07.478Z,53.15
2019-02-26T12:39:27.943Z,70.17
2019-02-26T12:42:33.585Z,59.42
2019-02-26T12:45:34.220Z,65.25
2019-02-26T12:48:31.072Z,53.68
2019-02-26T12:51:35.466Z,77.08
2019-02-26T12:54:37.103Z,64.87
2019-02-26T12:57:31.627Z,65.75
2019-02-26T13:00:30.963Z,65.22
2019-02-26T13:03:42.552Z,59.85
2019-02-26T13:06:56.644Z,62.70
2019-02-26T13:09:55.946Z,65.78
2019-02-26T13:12:52.800Z,67.92
2019-02-26T13:15:56.319Z,70.05
2019-02-26T13:18:58.452Z,68.47
2019-02-26T13:21:51.872Z,61.40
2019-02-26T13:24:47.256Z,68.22
2019-02-26T13:27:46.701Z,55.30
2019-02-26T13:30:39.372Z,97.92
2019-02-26T13:33:42.134Z,192.98
2019-02-26T13:39:45.557Z,192.85
2019-02-26T13:49:30.944Z,155.63
2019-02-26T13:52:25.983Z,154.78
2019-02-26T13:55:20.784Z,125.87
2019-02-26T13:58:15.727Z,132.15
2019-02-26T14:01:10.941Z,132.57
2019-02-26T14:04:08.366Z,125.85
2019-02-26T14:07:03.702Z,122.28
2019-02-26T14:09:58.968Z,129.53
2019-02-26T14:12:54.233Z,151.87
2019-02-26T14:15:49.278Z,138.15
2019-02-26T14:18:44.314Z,115.17
2019-02-26T14:21:40.050Z,130.40
2019-02-26T14:24:35.237Z,110.10
2019-02-26T14:27:32.802Z,121.28
2019-02-26T14:30:28.243Z,128.57
2019-02-26T14:33:23.213Z,115.20
2019-02-26T14:36:18.839Z,119.90
2019-02-26T14:39:14.703Z,137.65
2019-02-26T14:42:10.114Z,123.28
2019-02-26T14:45:05.522Z,125.30
2019-02-26T14:48:00.681Z,117.75
2019-02-26T14:50:56.583Z,106.15
2019-02-26T14:53:52.041Z,125.50
2019-02-26T14:56:48.451Z,125.95
2019-02-26T14:59:46.438Z,120.05
2019-02-26T15:02:41.750Z,149.93
2019-02-26T15:05:37.391Z,198.43
2019-02-26T15:08:34.639Z,152.72
2019-02-26T15:11:32.752Z,151.53
2019-02-26T15:14:29.240Z,155.95
2019-02-26T15:17:24.835Z,150.15
2019-02-26T15:20:21.515Z,154.03
2019-02-26T15:23:17.671Z,162.40
2019-02-26T15:26:13.615Z,183.05
2019-02-26T15:29:09.523Z,159.97
2019-02-26T15:32:05.362Z,149.95
2019-02-26T15:35:00.744Z,153.90
2019-02-26T15:37:56.631Z,141.88
2019-02-26T15:40:53.407Z,125.78
2019-02-26T15:43:48.479Z,131.95
2019-02-26T15:46:44.309Z,146.68
2019-02-26T15:49:40.217Z,175.97
2019-02-26T15:52:36.049Z,158.93
2019-02-26T15:55:31.328Z,139.10
2019-02-26T15:58:26.754Z,148.02
2019-02-26T16:01:22.114Z,144.10
2019-02-26T16:04:17.856Z,137.50
2019-02-26T16:07:14.766Z,158.37
2019-02-26T16:10:11.520Z,138.25
2019-02-26T16:13:07.436Z,145.50
2019-02-26T16:16:02.660Z,132.55
2019-02-26T16:19:00.326Z,137.18
2019-02-26T16:21:55.657Z,136.77
2019-02-26T16:24:51.489Z,153.90
2019-02-26T16:27:47.212Z,140.28
2019-02-26T16:30:43.218Z,151.18
2019-02-26T16:33:39.463Z,141.00
2019-02-26T16:36:35.272Z,157.50
2019-02-26T16:39:31.430Z,161.45
2019-02-26T16:42:27.621Z,165.95
2019-02-26T16:45:24.676Z,168.35
2019-02-26T16:48:22.194Z,141.73
2019-02-26T16:51:20.945Z,137.45
2019-02-26T16:54:13.819Z,115.03
2019-02-26T16:57:09.574Z,126.10
2019-02-26T17:00:05.328Z,149.55
2019-02-26T17:03:01.320Z,138.52
2019-02-26T17:05:57.700Z,141.12
2019-02-26T17:08:53.919Z,153.12
2019-02-26T17:11:48.984Z,135.50
2019-02-26T17:14:45.057Z,138.52
2019-02-26T17:17:40.880Z,145.47
2019-02-26T17:20:36.334Z,135.68
2019-02-26T17:23:31.763Z,112.32
2019-02-26T17:26:27.316Z,114.65
2019-02-26T17:29:22.730Z,105.00
2019-02-26T17:32:18.180Z,110.15
2019-02-26T17:35:14.186Z,97.67
2019-02-26T17:38:09.918Z,93.03
2019-02-26T17:41:05.518Z,94.42
2019-02-26T17:44:02.205Z,93.60
2019-02-26T17:46:58.078Z,91.15
2019-02-26T17:49:53.609Z,80.85
2019-02-26T17:52:49.331Z,85.03
2019-02-26T17:55:46.325Z,80.38
2019-02-26T17:58:44.004Z,84.05
2019-02-26T18:01:40.123Z,84.95
2019-02-26T18:04:35.627Z,74.60
2019-02-26T18:07:30.943Z,80.97
2019-02-26T18:10:26.596Z,89.25
2019-02-26T18:13:21.998Z,79.35
2019-02-26T18:16:17.899Z,79.45
2019-02-26T18:19:14.246Z,75.87
2019-02-26T18:22:10.189Z,76.82
2019-02-26T18:25:05.776Z,80.42
2019-02-26T18:28:01.571Z,75.75
2019-02-26T18:30:57.249Z,78.25
2019-02-26T18:33:53.637Z,80.15
2019-02-26T18:36:49.593Z,77.35
2019-02-26T18:39:45.124Z,92.70
2019-02-26T18:42:41.425Z,82.22
2019-02-26T18:45:36.925Z,93.58
2019-02-26T18:48:32.598Z,82.57
2019-02-26T18:51:27.475Z,78.78
2019-02-26T18:54:23.114Z,82.10
2019-02-26T18:57:18.572Z,98.35
2019-02-26T19:00:16.440Z,91.32
2019-02-26T19:03:11.455Z,85.17
2019-02-26T19:06:06.951Z,75.85
2019-02-26T19:09:02.586Z,78.50
2019-02-26T19:11:58.367Z,89.25
2019-02-26T19:14:53.914Z,90.83
2019-02-26T19:17:50.874Z,87.72
2019-02-26T19:20:48.857Z,92.92
2019-02-26T19:23:41.715Z,82.10
2019-02-26T19:26:37.232Z,84.75
2019-02-26T19:29:32.534Z,76.22
2019-02-26T19:32:27.433Z,76.82
2019-02-26T19:35:23.867Z,78.62
2019-02-26T19:38:21.789Z,82.65
2019-02-26T19:41:18.512Z,78.25
2019-02-26T19:44:14.388Z,86.30
2019-02-26T19:47:10.900Z,76.20
2019-02-26T19:50:05.836Z,75.80
2019-02-26T19:53:02.439Z,90.22
2019-02-26T19:55:57.566Z,78.60
2019-02-26T19:58:52.807Z,89.42
2019-02-26T20:01:47.627Z,79.87
2019-02-26T20:04:42.384Z,84.07
2019-02-26T20:07:37.803Z,79.82
2019-02-26T20:10:32.743Z,81.42
2019-02-26T20:13:27.878Z,81.20
2019-02-26T20:16:22.641Z,92.00
2019-02-26T20:19:17.444Z,84.77
2019-02-26T20:22:12.705Z,84.62
2019-02-26T20:25:07.725Z,77.22
2019-02-26T20:28:05.553Z,78.30
2019-02-26T20:30:58.927Z,82.60
2019-02-26T20:33:54.011Z,73.95
2019-02-26T20:36:51.162Z,79.60
2019-02-26T20:39:45.812Z,82.02
2019-02-26T20:42:41.312Z,70.35
2019-02-26T20:45:35.960Z,64.37
2019-02-26T20:48:31.139Z,60.58
2019-02-26T20:51:27.133Z,59.03
2019-02-26T20:54:21.536Z,75.60
2019-02-26T20:57:17.767Z,62.23
2019-02-26T21:00:16.462Z,63.30
2019-02-26T21:03:11.592Z,65.52
2019-02-26T21:06:06.446Z,58.70
2019-02-26T21:09:04.800Z,59.13
2019-02-26T21:11:57.279Z,59.50
2019-02-26T21:14:52.432Z,60.85
2019-02-26T21:17:47.749Z,62.45
2019-02-26T21:20:42.867Z,62.78
2019-02-26T21:23:38.322Z,62.05
2019-02-26T21:26:33.460Z,58.65
2019-02-26T21:29:29.368Z,59.25
2019-02-26T21:32:25.636Z,50.58
2019-02-26T21:35:21.204Z,57.20
2019-02-26T21:38:15.923Z,51.40
2019-02-26T21:41:10.733Z,57.58
2019-02-26T21:44:08.711Z,48.35
2019-02-26T21:47:01.822Z,55.65
2019-02-26T21:49:57.579Z,50.35
2019-02-26T21:53:00.242Z,51.30
2019-02-26T21:55:49.282Z,49.95
2019-02-26T21:58:44.295Z,58.58
2019-02-26T22:01:41.314Z,52.62
2019-02-26T22:04:36.710Z,51.55
2019-02-26T22:07:31.691Z,56.83
2019-02-26T22:10:27.510Z,59.33
2019-02-26T22:13:22.460Z,55.90
2019-02-26T22:16:18.318Z,49.48
2019-02-26T22:19:13.130Z,47.55
2019-02-26T22:22:08.436Z,59.40
2019-02-26T22:25:09.653Z,50.60
2019-02-26T22:27:59.462Z,48.02
2019-02-26T22:30:55.976Z,42.20
2019-02-26T22:33:50.111Z,39.65
2019-02-26T22:36:45.680Z,55.52
2019-02-26T22:39:40.426Z,49.70
2019-02-26T22:42:35.611Z,35.35
2019-02-26T22:45:33.248Z,48.48
2019-02-26T22:48:27.951Z,42.33
2019-02-26T22:51:23.253Z,44.50
2019-02-26T22:54:19.672Z,35.03
2019-02-26T22:57:15.178Z,44.15
2019-02-26T23:00:16.121Z,39.30
2019-02-26T23:03:12.936Z,49.67
2019-02-26T23:06:07.370Z,42.78
2019-02-26T23:09:02.451Z,41.58
2019-02-26T23:11:58.070Z,57.27
2019-02-26T23:14:53.516Z,45.25
2019-02-26T23:17:49.252Z,43.35
2019-02-26T23:20:44.377Z,39.15
2019-02-26T23:23:39.510Z,58.50
2019-02-26T23:26:34.586Z,49.77
2019-02-26T23:29:29.724Z,52.17
2019-02-26T23:32:25.853Z,45.55
2019-02-26T23:35:24.674Z,42.80
2019-02-26T23:38:17.361Z,35.28
2019-02-26T23:41:12.171Z,44.60
2019-02-26T23:44:07.058Z,36.55
2019-02-26T23:47:02.622Z,50.45
2019-02-26T23:49:57.442Z,59.23
2019-02-26T23:52:52.517Z,53.92
2019-02-26T23:55:47.599Z,48.38
2019-02-26T23:58:44.759Z,55.80
